createdAt,value
2018-08-10T00:00:52.756Z,50.04
2018-08-10T00:01:24.845Z,49.85
2018-08-10T00:01:56.924Z,49.85
2018-08-10T00:02:28.996Z,49.85
2018-08-10T00:03:01.107Z,49.85
2018-08-10T00:03:33.171Z,49.85
2018-08-10T00:04:05.277Z,49.95
2018-08-10T00:04:37.340Z,49.75
2018-08-10T00:06:29.094Z,50.24
2018-08-10T00:07:01.194Z,50.04
2018-08-10T00:07:33.291Z,49.92
2018-08-10T00:08:05.360Z,49.85
2018-08-10T00:08:37.407Z,49.85
2018-08-10T00:09:09.502Z,49.95
2018-08-10T00:09:41.596Z,50.04
2018-08-10T00:10:13.679Z,50.04
2018-08-10T00:10:45.767Z,50.04
2018-08-10T00:11:17.873Z,50.04
2018-08-10T00:11:49.980Z,50.43
2018-08-10T00:12:22.047Z,50.31
2018-08-10T00:12:54.116Z,49.85
2018-08-10T00:13:26.208Z,49.75
2018-08-10T00:13:58.295Z,49.95
2018-08-10T00:14:30.400Z,49.85
2018-08-10T00:16:21.855Z,49.92
2018-08-10T00:18:13.576Z,49.92
2018-08-10T00:18:45.679Z,50.12
2018-08-10T00:19:17.770Z,49.92
2018-08-10T00:19:49.875Z,50.34
2018-08-10T00:20:21.944Z,49.95
2018-08-10T00:20:54.029Z,50.02
2018-08-10T00:21:26.136Z,50.12
2018-08-10T00:21:58.227Z,50.12
2018-08-10T00:22:30.343Z,50.31
2018-08-10T00:23:02.413Z,50.14
2018-08-10T00:24:53.862Z,50.12
2018-08-10T00:25:25.964Z,50.12
2018-08-10T00:25:58.032Z,50.12
2018-08-10T00:26:30.108Z,50.12
2018-08-10T00:27:02.185Z,50.12
2018-08-10T00:27:34.274Z,50.12
2018-08-10T00:28:06.362Z,50.02
2018-08-10T00:28:38.447Z,50.02
2018-08-10T00:29:10.520Z,50.34
2018-08-10T00:29:42.607Z,50.12
2018-08-10T00:30:14.697Z,50.21
2018-08-10T00:30:46.777Z,50.21
2018-08-10T00:31:18.871Z,50.21
2018-08-10T00:31:50.952Z,50.12
2018-08-10T00:32:23.057Z,50.02
2018-08-10T00:32:55.138Z,50.21
2018-08-10T00:33:27.233Z,50.21
2018-08-10T00:35:18.777Z,50.31
2018-08-10T00:35:50.872Z,50.31
2018-08-10T00:36:22.950Z,50.31
2018-08-10T00:36:55.039Z,49.92
2018-08-10T00:37:27.123Z,50.31
2018-08-10T00:37:59.202Z,50.31
2018-08-10T00:38:31.302Z,50.21
2018-08-10T00:39:03.364Z,50.21
2018-08-10T00:39:35.458Z,50.21
2018-08-10T00:40:07.538Z,50.21
2018-08-10T00:40:39.630Z,50.21
2018-08-10T00:42:31.298Z,50.21
2018-08-10T00:43:03.413Z,50.31
2018-08-10T00:43:35.522Z,50.31
2018-08-10T00:45:27.098Z,49.82
2018-08-10T00:45:59.181Z,50.31
2018-08-10T00:47:50.705Z,50.31
2018-08-10T00:48:22.796Z,50.31
2018-08-10T00:48:54.879Z,50.5
2018-08-10T00:49:26.968Z,50.5
2018-08-10T00:49:59.037Z,50.21
2018-08-10T00:50:31.106Z,50.02
2018-08-10T00:52:22.878Z,50.31
2018-08-10T00:54:14.623Z,50.31
2018-08-10T00:54:46.716Z,50.02
2018-08-10T00:55:18.802Z,50.41
2018-08-10T00:55:50.896Z,50.12
2018-08-10T00:56:22.967Z,50.5
2018-08-10T00:56:55.043Z,50.31
2018-08-10T00:57:27.136Z,50.21
2018-08-10T00:59:18.457Z,50.31
2018-08-10T00:59:50.550Z,50.31
2018-08-10T01:00:22.635Z,50.5
2018-08-10T01:00:54.708Z,50.21
2018-08-10T01:01:26.802Z,49.73
2018-08-10T01:01:58.897Z,50.41
2018-08-10T01:02:30.981Z,49.82
2018-08-10T01:03:03.064Z,50.41
2018-08-10T01:03:35.159Z,49.92
2018-08-10T01:04:07.246Z,50.5
2018-08-10T01:04:39.348Z,50.5
2018-08-10T01:05:11.447Z,50.12
2018-08-10T01:05:43.536Z,50.41
2018-08-10T01:06:15.612Z,50.41
2018-08-10T01:06:47.688Z,50.5
2018-08-10T01:07:19.786Z,50.41
2018-08-10T01:07:51.858Z,50.5
2018-08-10T01:08:23.937Z,50.41
2018-08-10T01:08:56.039Z,50.6
2018-08-10T01:09:28.147Z,50.5
2018-08-10T01:10:00.246Z,50.6
2018-08-10T01:10:32.331Z,50.5
2018-08-10T01:11:04.425Z,50.5
2018-08-10T01:11:36.511Z,50.31
2018-08-10T01:12:08.629Z,50.5
2018-08-10T01:12:40.710Z,50.5
2018-08-10T01:13:12.824Z,50.21
2018-08-10T01:13:44.894Z,50.6
2018-08-10T01:14:16.990Z,50.5
2018-08-10T01:14:49.071Z,50.31
2018-08-10T01:15:21.166Z,50.5
2018-08-10T01:15:53.258Z,50.31
2018-08-10T01:16:25.354Z,50.41
2018-08-10T01:16:57.456Z,50.21
2018-08-10T01:17:29.528Z,50.31
2018-08-10T01:18:01.599Z,50.31
2018-08-10T01:18:33.697Z,50.7
2018-08-10T01:19:05.859Z,50.02
2018-08-10T01:19:37.886Z,50.31
2018-08-10T01:21:29.308Z,50.31
2018-08-10T01:23:20.889Z,50.41
2018-08-10T01:23:52.987Z,50.31
2018-08-10T01:24:25.117Z,50.21
2018-08-10T01:24:57.201Z,50.02
2018-08-10T01:25:29.300Z,50.79
2018-08-10T01:27:20.729Z,50.02
2018-08-10T01:27:52.852Z,50.89
2018-08-10T01:28:24.990Z,50.6
2018-08-10T01:28:57.161Z,50.7
2018-08-10T01:29:29.087Z,50.79
2018-08-10T01:30:01.172Z,50.31
2018-08-10T01:30:33.255Z,50.7
2018-08-10T01:32:24.828Z,50.79
2018-08-10T01:32:56.922Z,50.12
2018-08-10T01:33:29.009Z,50.7
2018-08-10T01:34:01.108Z,50.7
2018-08-10T01:35:52.605Z,50.7
2018-08-10T01:37:43.978Z,50.31
2018-08-10T01:38:16.078Z,50.48
2018-08-10T01:38:48.164Z,50.6
2018-08-10T01:39:20.271Z,50.5
2018-08-10T01:39:52.380Z,50.41
2018-08-10T01:40:24.470Z,50.5
2018-08-10T01:40:56.560Z,50.02
2018-08-10T01:41:28.643Z,50.5
2018-08-10T01:42:00.744Z,50.57
2018-08-10T01:42:32.821Z,50.6
2018-08-10T01:43:04.899Z,50.7
2018-08-10T01:43:36.997Z,50.48
2018-08-10T01:44:09.053Z,50.5
2018-08-10T01:44:41.159Z,50.6
2018-08-10T01:45:13.247Z,50.57
2018-08-10T01:45:45.296Z,50.6
2018-08-10T01:46:17.369Z,50.57
2018-08-10T01:46:49.462Z,50.57
2018-08-10T01:47:21.559Z,50.41
2018-08-10T01:47:53.628Z,50.09
2018-08-10T01:48:25.678Z,50.57
2018-08-10T01:48:57.765Z,50.19
2018-08-10T01:49:29.875Z,50.41
2018-08-10T01:50:01.951Z,50.48
2018-08-10T01:50:34.053Z,50.29
2018-08-10T01:51:06.155Z,50.09
2018-08-10T01:51:38.260Z,50.29
2018-08-10T01:52:10.353Z,50.29
2018-08-10T01:54:01.986Z,50.29
2018-08-10T01:54:34.085Z,50.38
2018-08-10T01:55:06.183Z,50.38
2018-08-10T01:55:38.260Z,50.77
2018-08-10T01:56:10.361Z,50.38
2018-08-10T01:56:42.429Z,50.29
2018-08-10T01:57:14.491Z,50.48
2018-08-10T01:57:46.590Z,50.67
2018-08-10T01:58:18.666Z,50.48
2018-08-10T01:58:50.740Z,50.77
2018-08-10T01:59:22.809Z,50.29
2018-08-10T01:59:54.907Z,50.48
2018-08-10T02:00:27.000Z,50.38
2018-08-10T02:00:59.066Z,50.38
2018-08-10T02:01:31.158Z,50.87
2018-08-10T02:02:03.248Z,50.38
2018-08-10T02:05:14.268Z,50.29
2018-08-10T02:07:05.911Z,50.38
2018-08-10T02:07:38.012Z,50.67
2018-08-10T02:09:29.643Z,50.57
2018-08-10T02:10:01.724Z,49.99
2018-08-10T02:10:33.825Z,50.67
2018-08-10T02:12:25.428Z,50.29
2018-08-10T02:12:57.511Z,50.29
2018-08-10T02:13:29.600Z,50.57
2018-08-10T02:14:01.694Z,50.29
2018-08-10T02:14:33.791Z,50.19
2018-08-10T02:15:05.880Z,50.38
2018-08-10T02:15:37.994Z,50.57
2018-08-10T02:16:10.092Z,50.57
2018-08-10T02:16:42.174Z,50.48
2018-08-10T02:17:14.244Z,50.19
2018-08-10T02:17:46.337Z,50.57
2018-08-10T02:18:18.432Z,50.48
2018-08-10T02:18:50.491Z,50.48
2018-08-10T02:19:22.582Z,50.57
2018-08-10T02:19:54.680Z,50.57
2018-08-10T02:20:26.743Z,50.67
2018-08-10T02:20:58.815Z,50.77
2018-08-10T02:21:30.922Z,50.38
2018-08-10T02:22:02.989Z,50.38
2018-08-10T02:22:35.063Z,50.38
2018-08-10T02:24:26.768Z,50.38
2018-08-10T02:26:18.187Z,50.57
2018-08-10T02:26:50.259Z,50.57
2018-08-10T02:27:22.343Z,50.38
2018-08-10T02:29:13.858Z,50.67
2018-08-10T02:31:05.272Z,50.48
2018-08-10T02:31:37.338Z,50.57
2018-08-10T02:33:28.704Z,50.38
2018-08-10T02:34:00.807Z,50.57
2018-08-10T02:34:32.908Z,50.48
2018-08-10T02:36:24.693Z,50.57
2018-08-10T02:36:56.771Z,50.67
2018-08-10T02:37:28.867Z,50.77
2018-08-10T02:38:00.954Z,50.77
2018-08-10T02:38:33.021Z,50.57
2018-08-10T02:39:05.111Z,50.67
2018-08-10T02:39:37.213Z,50.57
2018-08-10T02:40:09.305Z,50.67
2018-08-10T02:40:41.379Z,50.67
2018-08-10T02:41:13.474Z,50.67
2018-08-10T02:41:45.570Z,50.55
2018-08-10T02:42:17.663Z,50.74
2018-08-10T02:42:49.737Z,50.65
2018-08-10T02:43:21.828Z,50.67
2018-08-10T02:43:53.922Z,50.77
2018-08-10T02:44:26.011Z,50.67
2018-08-10T02:44:58.099Z,50.48
2018-08-10T02:45:30.197Z,50.38
2018-08-10T02:46:02.312Z,50.87
2018-08-10T02:46:34.392Z,50.45
2018-08-10T02:47:06.477Z,50.67
2018-08-10T02:47:38.570Z,50.84
2018-08-10T02:48:10.642Z,50.87
2018-08-10T02:48:42.725Z,50.84
2018-08-10T02:49:14.789Z,50.55
2018-08-10T02:51:06.363Z,50.65
2018-08-10T02:51:38.430Z,50.74
2018-08-10T02:52:10.516Z,50.67
2018-08-10T02:52:42.605Z,50.77
2018-08-10T02:53:14.711Z,50.84
2018-08-10T02:55:06.024Z,50.74
2018-08-10T02:56:57.380Z,50.55
2018-08-10T02:57:29.469Z,50.65
2018-08-10T02:58:01.565Z,50.55
2018-08-10T02:58:33.671Z,50.65
2018-08-10T02:59:05.771Z,50.55
2018-08-10T02:59:37.877Z,50.55
2018-08-10T03:00:09.973Z,50.55
2018-08-10T03:00:42.073Z,50.94
2018-08-10T03:01:14.133Z,50.55
2018-08-10T03:01:46.213Z,50.84
2018-08-10T03:02:18.312Z,50.45
2018-08-10T03:02:50.413Z,50.84
2018-08-10T03:03:22.508Z,50.74
2018-08-10T03:03:54.613Z,50.55
2018-08-10T03:04:26.703Z,50.84
2018-08-10T03:06:18.475Z,50.94
2018-08-10T03:06:50.575Z,50.94
2018-08-10T03:07:22.663Z,50.84
2018-08-10T03:07:54.750Z,50.94
2018-08-10T03:08:26.825Z,51.04
2018-08-10T03:08:58.900Z,50.94
2018-08-10T03:09:30.975Z,51.04
2018-08-10T03:10:03.063Z,50.94
2018-08-10T03:10:35.127Z,50.94
2018-08-10T03:11:07.198Z,50.74
2018-08-10T03:11:39.278Z,50.94
2018-08-10T03:12:11.370Z,51.04
2018-08-10T03:12:43.436Z,51.04
2018-08-10T03:13:15.527Z,51.04
2018-08-10T03:13:47.603Z,50.94
2018-08-10T03:14:19.697Z,50.26
2018-08-10T03:14:51.786Z,51.04
2018-08-10T03:15:23.888Z,50.94
2018-08-10T03:15:55.977Z,50.94
2018-08-10T03:17:47.377Z,51.04
2018-08-10T03:19:38.799Z,50.94
2018-08-10T03:21:30.466Z,51.04
2018-08-10T03:22:02.616Z,50.84
2018-08-10T03:22:34.638Z,50.94
2018-08-10T03:24:25.971Z,51.04
2018-08-10T03:24:58.073Z,50.94
2018-08-10T03:25:30.148Z,51.04
2018-08-10T03:26:02.243Z,51.04
2018-08-10T03:26:34.321Z,51.13
2018-08-10T03:27:06.432Z,51.04
2018-08-10T03:27:38.514Z,51.13
2018-08-10T03:28:10.623Z,50.94
2018-08-10T03:28:42.704Z,50.94
2018-08-10T03:29:14.775Z,51.04
2018-08-10T03:31:06.474Z,50.94
2018-08-10T03:31:38.549Z,51.13
2018-08-10T03:32:10.633Z,51.13
2018-08-10T03:32:42.700Z,51.04
2018-08-10T03:33:14.782Z,50.84
2018-08-10T03:33:46.886Z,50.94
2018-08-10T03:34:18.979Z,50.94
2018-08-10T03:34:51.079Z,51.13
2018-08-10T03:35:23.122Z,50.94
2018-08-10T03:35:55.240Z,50.84
2018-08-10T03:36:27.326Z,51.32
2018-08-10T03:36:59.392Z,51.32
2018-08-10T03:37:31.469Z,50.84
2018-08-10T03:38:03.521Z,51.04
2018-08-10T03:38:35.618Z,51.32
2018-08-10T03:39:07.730Z,50.84
2018-08-10T03:40:59.401Z,50.92
2018-08-10T03:41:31.456Z,51.04
2018-08-10T03:42:03.510Z,50.92
2018-08-10T03:42:35.591Z,51.42
2018-08-10T03:44:26.890Z,51.42
2018-08-10T03:46:18.282Z,50.82
2018-08-10T03:48:10.063Z,51.32
2018-08-10T03:48:42.156Z,51.4
2018-08-10T03:49:14.251Z,51.42
2018-08-10T03:49:46.390Z,50.94
2018-08-10T03:50:18.427Z,51.52
2018-08-10T03:50:50.502Z,51.5
2018-08-10T03:51:22.605Z,51.52
2018-08-10T03:51:54.704Z,51.5
2018-08-10T03:52:26.785Z,50.92
2018-08-10T03:52:58.878Z,51.42
2018-08-10T03:53:30.944Z,50.72
2018-08-10T03:54:03.040Z,51.4
2018-08-10T03:54:35.164Z,51.52
2018-08-10T03:55:07.200Z,50.74
2018-08-10T03:55:39.301Z,51.5
2018-08-10T03:56:11.397Z,51.32
2018-08-10T03:56:43.482Z,51.4
2018-08-10T03:58:34.901Z,51.4
2018-08-10T03:59:06.992Z,51.5
2018-08-10T03:59:39.092Z,51.4
2018-08-10T04:00:11.154Z,50.72
2018-08-10T04:00:43.259Z,51.4
2018-08-10T04:01:15.324Z,51.3
2018-08-10T04:03:06.831Z,51.4
2018-08-10T04:03:38.923Z,51.4
2018-08-10T04:04:10.993Z,51.3
2018-08-10T04:04:43.077Z,50.62
2018-08-10T04:06:34.749Z,50.62
2018-08-10T04:07:06.825Z,51.4
2018-08-10T04:08:58.576Z,50.72
2018-08-10T04:09:30.675Z,50.62
2018-08-10T04:10:02.723Z,51.3
2018-08-10T04:10:34.793Z,51.4
2018-08-10T04:11:06.893Z,51.3
2018-08-10T04:12:58.403Z,51.3
2018-08-10T04:13:30.494Z,50.72
2018-08-10T04:14:02.582Z,51.4
2018-08-10T04:14:34.646Z,51.2
2018-08-10T04:15:06.726Z,51.3
2018-08-10T04:15:38.828Z,51.4
2018-08-10T04:16:10.925Z,51.3
2018-08-10T04:16:43.011Z,51.3
2018-08-10T04:17:15.104Z,50.62
2018-08-10T04:17:47.193Z,50.72
2018-08-10T04:18:19.269Z,51.2
2018-08-10T04:18:51.373Z,51.4
2018-08-10T04:19:23.444Z,51.3
2018-08-10T04:19:55.550Z,51.2
2018-08-10T04:20:27.620Z,51.3
2018-08-10T04:20:59.707Z,51.3
2018-08-10T04:21:31.806Z,51.2
2018-08-10T04:22:03.903Z,51.4
2018-08-10T04:22:36.011Z,51.2
2018-08-10T04:23:08.104Z,51.2
2018-08-10T04:23:40.185Z,51.4
2018-08-10T04:24:12.263Z,51.2
2018-08-10T04:24:44.340Z,51.4
2018-08-10T04:25:16.427Z,51.3
2018-08-10T04:25:48.533Z,51.3
2018-08-10T04:26:20.615Z,51.3
2018-08-10T04:28:12.362Z,51.4
2018-08-10T04:28:44.426Z,51.3
2018-08-10T04:29:16.527Z,51.3
2018-08-10T04:31:08.256Z,51.3
2018-08-10T04:31:40.361Z,50.72
2018-08-10T04:32:12.431Z,51.3
2018-08-10T04:32:44.496Z,51.3
2018-08-10T04:33:16.568Z,50.72
2018-08-10T04:35:07.931Z,50.72
2018-08-10T04:35:40.015Z,51.4
2018-08-10T04:36:12.098Z,51.4
2018-08-10T04:36:44.169Z,51.3
2018-08-10T04:37:16.259Z,51.2
2018-08-10T04:37:48.329Z,51.2
2018-08-10T04:38:24.293Z,51.2
2018-08-10T04:38:56.308Z,50.72
2018-08-10T04:39:28.395Z,51.4
2018-08-10T04:40:00.479Z,51.4
2018-08-10T04:40:32.600Z,50.72
2018-08-10T04:41:04.681Z,51.2
2018-08-10T04:41:36.774Z,50.72
2018-08-10T04:42:08.828Z,51.3
2018-08-10T04:42:40.905Z,51.2
2018-08-10T04:43:12.994Z,51.3
2018-08-10T04:43:45.083Z,51.4
2018-08-10T04:44:17.179Z,50.72
2018-08-10T04:44:49.251Z,51.4
2018-08-10T04:45:21.355Z,51.2
2018-08-10T04:45:53.426Z,50.62
2018-08-10T04:46:25.511Z,50.82
2018-08-10T04:46:57.613Z,51.2
2018-08-10T04:47:29.691Z,51.4
2018-08-10T04:48:01.781Z,50.72
2018-08-10T04:48:33.961Z,51.3
2018-08-10T04:49:06.049Z,51.4
2018-08-10T04:49:38.137Z,50.72
2018-08-10T04:50:10.232Z,51.4
2018-08-10T04:50:42.328Z,51.4
2018-08-10T04:51:14.421Z,51.3
2018-08-10T04:51:46.509Z,51.1
2018-08-10T04:53:38.002Z,51.4
2018-08-10T04:54:10.069Z,51.2
2018-08-10T04:56:01.807Z,51.4
2018-08-10T04:56:33.888Z,51.2
2018-08-10T04:57:05.979Z,51.2
2018-08-10T04:57:38.079Z,51.2
2018-08-10T04:59:29.607Z,51.4
2018-08-10T05:00:01.697Z,50.72
2018-08-10T05:00:33.772Z,51.2
2018-08-10T05:01:05.839Z,50.72
2018-08-10T05:01:37.906Z,50.72
2018-08-10T05:02:10.060Z,50.72
2018-08-10T05:02:42.156Z,51.2
2018-08-10T05:03:14.233Z,51.2
2018-08-10T05:05:05.610Z,51.2
2018-08-10T05:05:37.686Z,51.1
2018-08-10T05:06:09.777Z,50.62
2018-08-10T05:06:41.855Z,51.2
2018-08-10T05:07:13.934Z,50.82
2018-08-10T05:07:46.018Z,51.2
2018-08-10T05:08:18.104Z,51.4
2018-08-10T05:08:50.195Z,51.4
2018-08-10T05:09:22.296Z,51.3
2018-08-10T05:09:54.459Z,51.3
2018-08-10T05:10:26.479Z,51.3
2018-08-10T05:10:58.571Z,51.3
2018-08-10T05:11:30.637Z,50.72
2018-08-10T05:12:02.714Z,51.3
2018-08-10T05:12:34.783Z,50.62
2018-08-10T05:13:06.822Z,51.3
2018-08-10T05:14:58.373Z,51.4
2018-08-10T05:16:50.041Z,50.62
2018-08-10T05:17:22.123Z,51.3
2018-08-10T05:17:54.210Z,51.3
2018-08-10T05:18:26.291Z,51.3
2018-08-10T05:18:58.369Z,50.72
2018-08-10T05:19:30.437Z,50.72
2018-08-10T05:20:02.505Z,51.3
2018-08-10T05:20:34.598Z,51.4
2018-08-10T05:22:26.293Z,51.3
2018-08-10T05:22:58.382Z,51.4
2018-08-10T05:23:30.462Z,51.3
2018-08-10T05:24:02.566Z,50.62
2018-08-10T05:25:54.131Z,51.4
2018-08-10T05:26:26.142Z,51.4
2018-08-10T05:26:58.200Z,51.4
2018-08-10T05:27:30.280Z,51.3
2018-08-10T05:28:02.331Z,50.62
2018-08-10T05:28:34.435Z,51.3
2018-08-10T05:29:06.516Z,50.72
2018-08-10T05:29:38.591Z,51.5
2018-08-10T05:31:30.353Z,51.4
2018-08-10T05:32:02.415Z,51.4
2018-08-10T05:32:34.456Z,51.4
2018-08-10T05:33:06.489Z,51.4
2018-08-10T05:33:38.564Z,51.4
2018-08-10T05:34:10.656Z,51.4
2018-08-10T05:34:42.794Z,51.4
2018-08-10T05:35:14.810Z,51.4
2018-08-10T05:37:06.474Z,51.5
2018-08-10T05:37:38.569Z,51.4
2018-08-10T05:38:10.656Z,50.92
2018-08-10T05:38:42.751Z,50.92
2018-08-10T05:39:15.032Z,50.92
2018-08-10T05:39:51.057Z,50.82
2018-08-10T05:40:23.163Z,50.43
2018-08-10T05:40:55.256Z,50.92
2018-08-10T05:41:27.299Z,50.92
2018-08-10T05:41:59.421Z,50.92
2018-08-10T05:42:34.023Z,50.62
2018-08-10T05:43:06.085Z,50.82
2018-08-10T05:43:38.107Z,50.84
2018-08-10T05:44:10.338Z,50.92
2018-08-10T05:44:42.223Z,50.94
2018-08-10T05:45:14.324Z,50.74
2018-08-10T05:45:46.381Z,50.74
2018-08-10T05:46:18.429Z,50.84
2018-08-10T05:46:50.544Z,50.74
2018-08-10T05:47:22.625Z,50.65
2018-08-10T05:47:54.694Z,50.65
2018-08-10T05:48:26.707Z,50.65
2018-08-10T05:48:58.725Z,50.65
2018-08-10T05:49:30.800Z,50.74
2018-08-10T05:50:02.942Z,50.55
2018-08-10T05:50:34.949Z,50.35
2018-08-10T05:51:07.017Z,50.45
2018-08-10T05:51:39.040Z,50.45
2018-08-10T05:52:11.051Z,50.65
2018-08-10T05:52:43.122Z,50.74
2018-08-10T05:53:15.170Z,50.26
2018-08-10T05:53:47.212Z,50.55
2018-08-10T05:54:19.256Z,50.55
2018-08-10T05:54:51.296Z,50.65
2018-08-10T05:55:24.275Z,50.45
2018-08-10T05:55:56.340Z,50.26
2018-08-10T05:56:28.380Z,50.65
2018-08-10T05:57:00.436Z,50.48
2018-08-10T05:57:32.737Z,50.07
2018-08-10T05:58:05.161Z,50.48
2018-08-10T05:58:37.184Z,50.57
2018-08-10T05:59:09.264Z,50.19
2018-08-10T05:59:41.303Z,50.77
2018-08-10T06:00:13.405Z,50.45
2018-08-10T06:00:45.448Z,50.19
2018-08-10T06:01:17.491Z,50.19
2018-08-10T06:01:49.545Z,50.38
2018-08-10T06:02:21.602Z,50.48
2018-08-10T06:02:53.650Z,50.09
2018-08-10T06:03:25.824Z,50.67
2018-08-10T06:03:57.940Z,50.67
2018-08-10T06:04:30.205Z,50.57
2018-08-10T06:05:02.247Z,50.57
2018-08-10T06:05:34.394Z,50.48
2018-08-10T06:06:06.457Z,50.57
2018-08-10T06:06:38.513Z,50.77
2018-08-10T06:07:10.541Z,50.48
2018-08-10T06:07:42.627Z,50.77
2018-08-10T06:08:14.664Z,50.67
2018-08-10T06:08:46.691Z,50.67
2018-08-10T06:09:18.838Z,50.67
2018-08-10T06:09:50.875Z,50.7
2018-08-10T06:10:23.025Z,50.79
2018-08-10T06:10:55.102Z,50.12
2018-08-10T06:11:27.167Z,50.02
2018-08-10T06:11:59.244Z,50.6
2018-08-10T06:12:31.428Z,50.31
2018-08-10T06:13:03.578Z,50.31
2018-08-10T06:13:35.766Z,50.31
2018-08-10T06:14:07.785Z,50.31
2018-08-10T06:14:39.879Z,50.41
2018-08-10T06:15:11.925Z,50.41
2018-08-10T06:15:43.921Z,50.21
2018-08-10T06:16:16.074Z,50.21
2018-08-10T06:16:48.119Z,50.5
2018-08-10T06:17:20.155Z,50.41
2018-08-10T06:17:52.186Z,50.41
2018-08-10T06:18:24.251Z,50.12
2018-08-10T06:18:56.282Z,50.41
2018-08-10T06:19:28.426Z,50.31
2018-08-10T06:20:00.563Z,50.21
2018-08-10T06:20:32.953Z,49.92
2018-08-10T06:21:05.036Z,50.31
2018-08-10T06:21:37.226Z,50.31
2018-08-10T06:22:09.237Z,50.21
2018-08-10T06:22:41.298Z,50.02
2018-08-10T06:23:13.327Z,50.12
2018-08-10T06:23:45.391Z,50.14
2018-08-10T06:24:17.480Z,50.14
2018-08-10T06:24:49.620Z,50.14
2018-08-10T06:25:21.667Z,49.85
2018-08-10T06:25:53.719Z,50.14
2018-08-10T06:26:25.762Z,49.75
2018-08-10T06:26:57.784Z,49.75
2018-08-10T06:27:29.806Z,50.14
2018-08-10T06:28:01.870Z,49.95
2018-08-10T06:28:34.040Z,49.95
2018-08-10T06:29:07.035Z,49.85
2018-08-10T06:29:39.077Z,49.85
2018-08-10T06:30:11.148Z,50.04
2018-08-10T06:30:43.855Z,49.75
2018-08-10T06:31:15.911Z,50.14
2018-08-10T06:31:47.996Z,49.75
2018-08-10T06:32:20.030Z,49.85
2018-08-10T06:32:52.088Z,49.75
2018-08-10T06:33:24.142Z,49.68
2018-08-10T06:33:56.355Z,49.97
2018-08-10T06:34:28.332Z,49.95
2018-08-10T06:35:00.406Z,50.07
2018-08-10T06:35:32.434Z,49.68
2018-08-10T06:36:04.491Z,49.77
2018-08-10T06:36:36.547Z,49.77
2018-08-10T06:37:08.628Z,49.87
2018-08-10T06:37:40.848Z,49.29
2018-08-10T06:38:12.957Z,49.77
2018-08-10T06:38:44.989Z,49.58
2018-08-10T06:39:17.036Z,49.77
2018-08-10T06:39:49.132Z,49.49
2018-08-10T06:40:21.155Z,49.77
2018-08-10T06:40:53.258Z,49.39
2018-08-10T06:41:25.367Z,49.77
2018-08-10T06:41:57.429Z,49.68
2018-08-10T06:42:29.479Z,49.49
2018-08-10T06:43:01.499Z,49.58
2018-08-10T06:43:33.540Z,49.61
2018-08-10T06:44:05.615Z,49.71
2018-08-10T06:44:37.624Z,49.71
2018-08-10T06:45:09.719Z,49.9
2018-08-10T06:45:41.830Z,49.61
2018-08-10T06:46:13.897Z,49.71
2018-08-10T06:46:45.968Z,49.41
2018-08-10T06:47:18.063Z,49.32
2018-08-10T06:47:50.139Z,49.41
2018-08-10T06:48:22.252Z,49.51
2018-08-10T06:48:54.324Z,49.71
2018-08-10T06:49:26.366Z,49.61
2018-08-10T06:49:59.050Z,49.32
2018-08-10T06:50:31.093Z,49.61
2018-08-10T06:51:03.132Z,49.41
2018-08-10T06:51:35.249Z,49.12
2018-08-10T06:52:07.309Z,49.41
2018-08-10T06:52:39.480Z,49.51
2018-08-10T06:53:11.663Z,49.51
2018-08-10T06:53:43.815Z,49.15
2018-08-10T06:54:15.858Z,49.54
2018-08-10T06:54:47.927Z,49.15
2018-08-10T06:55:20.007Z,49.34
2018-08-10T06:55:52.179Z,49.34
2018-08-10T06:56:24.741Z,49.15
2018-08-10T06:56:56.750Z,49.34
2018-08-10T06:57:28.843Z,49.24
2018-08-10T06:58:00.927Z,49.15
2018-08-10T06:58:32.983Z,49.24
2018-08-10T06:59:05.045Z,49.15
2018-08-10T06:59:37.116Z,49.24
2018-08-10T07:00:09.164Z,49.24
2018-08-10T07:00:41.263Z,49.05
2018-08-10T07:01:13.432Z,49.07
2018-08-10T07:01:45.569Z,49.05
2018-08-10T07:02:17.643Z,49.15
2018-08-10T07:02:49.666Z,48.88
2018-08-10T07:03:21.726Z,48.97
2018-08-10T07:03:53.785Z,49.07
2018-08-10T07:04:26.025Z,48.88
2018-08-10T07:04:58.175Z,48.78
2018-08-10T07:05:30.270Z,49.07
2018-08-10T07:06:02.323Z,49.07
2018-08-10T07:06:34.379Z,48.78
2018-08-10T07:07:07.062Z,49.07
2018-08-10T07:07:39.348Z,48.88
2018-08-10T07:08:11.370Z,49.07
2018-08-10T07:08:43.434Z,48.97
2018-08-10T07:09:15.612Z,48.78
2018-08-10T07:09:47.738Z,48.78
2018-08-10T07:10:19.767Z,48.78
2018-08-10T07:10:51.880Z,48.88
2018-08-10T07:11:23.944Z,48.78
2018-08-10T07:11:56.091Z,48.78
2018-08-10T07:12:28.088Z,48.88
2018-08-10T07:13:00.197Z,48.68
2018-08-10T07:13:32.344Z,48.71
2018-08-10T07:14:04.288Z,48.71
2018-08-10T07:14:36.265Z,48.61
2018-08-10T07:15:08.310Z,48.61
2018-08-10T07:15:40.455Z,48.71
2018-08-10T07:16:12.503Z,48.71
2018-08-10T07:16:44.632Z,48.61
2018-08-10T07:17:16.702Z,48.61
2018-08-10T07:17:48.815Z,48.71
2018-08-10T07:18:20.872Z,48.41
2018-08-10T07:18:52.951Z,48.51
2018-08-10T07:19:25.016Z,48.61
2018-08-10T07:19:57.025Z,48.51
2018-08-10T07:20:29.085Z,48.63
2018-08-10T07:21:01.148Z,48.61
2018-08-10T07:21:33.922Z,48.51
2018-08-10T07:22:06.041Z,48.34
2018-08-10T07:22:38.104Z,48.41
2018-08-10T07:23:10.136Z,48.34
2018-08-10T07:23:42.267Z,48.63
2018-08-10T07:24:14.349Z,48.32
2018-08-10T07:24:46.401Z,48.44
2018-08-10T07:25:18.474Z,48.22
2018-08-10T07:25:50.499Z,48.25
2018-08-10T07:26:22.513Z,48.44
2018-08-10T07:26:54.571Z,48.32
2018-08-10T07:27:26.614Z,48.34
2018-08-10T07:27:58.673Z,48.44
2018-08-10T07:28:30.700Z,48.34
2018-08-10T07:29:02.772Z,48.44
2018-08-10T07:29:34.855Z,48.25
2018-08-10T07:30:06.910Z,48.34
2018-08-10T07:30:38.960Z,48.44
2018-08-10T07:31:10.981Z,48.25
2018-08-10T07:31:42.973Z,48.25
2018-08-10T07:32:15.028Z,48.25
2018-08-10T07:32:47.112Z,48.25
2018-08-10T07:33:19.179Z,48.15
2018-08-10T07:33:51.213Z,48.15
2018-08-10T07:34:23.247Z,48.05
2018-08-10T07:34:55.294Z,47.96
2018-08-10T07:35:27.402Z,48.07
2018-08-10T07:35:59.540Z,47.98
2018-08-10T07:36:31.600Z,48.07
2018-08-10T07:37:03.626Z,47.96
2018-08-10T07:37:35.680Z,47.88
2018-08-10T07:38:07.813Z,47.98
2018-08-10T07:38:39.905Z,48.07
2018-08-10T07:39:12.038Z,47.98
2018-08-10T07:39:44.108Z,47.78
2018-08-10T07:40:16.152Z,47.98
2018-08-10T07:40:48.241Z,47.78
2018-08-10T07:41:20.392Z,47.88
2018-08-10T07:41:52.612Z,47.88
2018-08-10T07:42:24.684Z,47.78
2018-08-10T07:42:56.723Z,47.88
2018-08-10T07:43:28.760Z,47.78
2018-08-10T07:44:00.842Z,47.98
2018-08-10T07:44:32.969Z,47.88
2018-08-10T07:45:05.023Z,47.88
2018-08-10T07:45:37.081Z,47.69
2018-08-10T07:46:09.171Z,47.69
2018-08-10T07:46:41.221Z,47.71
2018-08-10T07:47:13.261Z,47.8
2018-08-10T07:47:45.319Z,47.71
2018-08-10T07:48:17.451Z,47.42
2018-08-10T07:48:49.502Z,47.52
2018-08-10T07:49:21.640Z,47.32
2018-08-10T07:49:54.014Z,47.61
2018-08-10T07:50:26.789Z,47.52
2018-08-10T07:50:58.834Z,47.52
2018-08-10T07:51:30.910Z,47.52
2018-08-10T07:52:03.074Z,47.61
2018-08-10T07:52:35.120Z,47.52
2018-08-10T07:53:07.225Z,47.52
2018-08-10T07:53:39.238Z,47.52
2018-08-10T07:54:11.332Z,47.32
2018-08-10T07:54:43.382Z,47.42
2018-08-10T07:55:15.361Z,47.25
2018-08-10T07:55:48.478Z,47.25
2018-08-10T07:56:20.500Z,47.22
2018-08-10T07:56:52.524Z,47.25
2018-08-10T07:57:24.552Z,47.05
2018-08-10T07:57:56.678Z,47.15
2018-08-10T07:58:28.851Z,47.05
2018-08-10T07:59:01.113Z,47.15
2018-08-10T07:59:33.177Z,47.15
2018-08-10T08:00:05.247Z,47.05
2018-08-10T08:00:37.270Z,47.15
2018-08-10T08:01:09.334Z,47.15
2018-08-10T08:01:41.577Z,46.76
2018-08-10T08:02:13.404Z,46.95
2018-08-10T08:02:45.489Z,46.37
2018-08-10T08:03:17.839Z,46.37
2018-08-10T08:03:49.939Z,45.49
2018-08-10T08:04:21.913Z,45
2018-08-10T08:04:54.060Z,45.49
2018-08-10T08:05:26.104Z,44.62
2018-08-10T08:05:58.136Z,45.57
2018-08-10T08:06:30.290Z,45.57
2018-08-10T08:07:02.457Z,45.47
2018-08-10T08:07:34.525Z,45.06
2018-08-10T08:08:06.599Z,45.64
2018-08-10T08:08:38.792Z,46.13
2018-08-10T08:09:10.962Z,45.84
2018-08-10T08:09:43.014Z,45.81
2018-08-10T08:10:15.171Z,45.54
2018-08-10T08:10:47.326Z,46.03
2018-08-10T08:11:19.463Z,46.59
2018-08-10T08:11:51.480Z,45.91
2018-08-10T08:12:23.506Z,45.04
2018-08-10T08:12:55.533Z,44.65
2018-08-10T08:13:27.583Z,44.92
2018-08-10T08:13:59.629Z,45.11
2018-08-10T08:14:31.687Z,45.01
2018-08-10T08:15:03.696Z,45.01
2018-08-10T08:15:35.804Z,45.57
2018-08-10T08:16:07.848Z,45.48